createdAt,value
2018-12-03T00:00:43.178Z,994.15
2018-12-03T00:01:42.780Z,994.15
2018-12-03T00:02:42.681Z,994.14
2018-12-03T00:03:42.575Z,994.18
2018-12-03T00:04:42.468Z,994.16
2018-12-03T00:05:42.368Z,994.15
2018-12-03T00:06:42.269Z,994.17
2018-12-03T00:07:42.159Z,994.19
2018-12-03T00:08:42.059Z,994.15
2018-12-03T00:09:41.959Z,994.15
2018-12-03T00:10:41.860Z,994.14
2018-12-03T00:11:41.760Z,994.17
2018-12-03T00:12:41.651Z,994.21
2018-12-03T00:13:41.548Z,994.16
2018-12-03T00:14:41.437Z,994.20
2018-12-03T00:15:41.339Z,994.19
2018-12-03T00:16:41.244Z,994.19
2018-12-03T00:17:41.127Z,994.22
2018-12-03T00:18:41.026Z,994.21
2018-12-03T00:19:40.926Z,994.18
2018-12-03T00:20:41.077Z,994.20
2018-12-03T00:21:40.718Z,994.21
2018-12-03T00:22:40.640Z,994.20
2018-12-03T00:23:40.517Z,994.22
2018-12-03T00:24:40.421Z,994.20
2018-12-03T00:25:40.305Z,994.20
2018-12-03T00:26:40.208Z,994.19
2018-12-03T00:27:40.106Z,994.17
2018-12-03T00:28:40.007Z,994.16
2018-12-03T00:29:39.896Z,994.16
2018-12-03T00:30:39.799Z,994.19
2018-12-03T00:31:39.696Z,994.17
2018-12-03T00:32:39.585Z,994.16
2018-12-03T00:33:39.484Z,994.16
2018-12-03T00:34:39.384Z,994.20
2018-12-03T00:35:39.285Z,994.18
2018-12-03T00:36:39.176Z,994.23
2018-12-03T00:37:39.074Z,994.23
2018-12-03T00:38:38.975Z,994.26
2018-12-03T00:39:38.876Z,994.24
2018-12-03T00:40:39.014Z,994.20
2018-12-03T00:41:38.664Z,994.16
2018-12-03T00:42:38.565Z,994.16
2018-12-03T00:43:38.465Z,994.16
2018-12-03T00:44:38.354Z,994.19
2018-12-03T00:45:38.254Z,994.18
2018-12-03T00:46:38.155Z,994.14
2018-12-03T00:47:38.056Z,994.14
2018-12-03T00:48:37.944Z,994.16
2018-12-03T00:49:37.845Z,994.13
2018-12-03T00:50:37.744Z,994.14
2018-12-03T00:51:37.653Z,994.14
2018-12-03T00:52:37.532Z,994.17
2018-12-03T00:53:37.433Z,994.18
2018-12-03T00:54:37.329Z,994.10
2018-12-03T00:55:37.223Z,994.11
2018-12-03T00:56:37.122Z,994.13
2018-12-03T00:57:37.023Z,994.12
2018-12-03T00:58:36.924Z,994.13
2018-12-03T00:59:36.814Z,994.10
2018-12-03T01:00:36.965Z,994.09
2018-12-03T01:01:36.653Z,994.12
2018-12-03T01:02:36.516Z,994.18
2018-12-03T01:03:36.401Z,994.11
2018-12-03T01:04:36.301Z,994.14
2018-12-03T01:05:36.202Z,994.12
2018-12-03T01:06:36.103Z,994.19
2018-12-03T01:07:35.992Z,994.22
2018-12-03T01:08:35.893Z,994.14
2018-12-03T01:09:35.792Z,994.17
2018-12-03T01:10:35.688Z,994.13
2018-12-03T01:11:35.580Z,994.16
2018-12-03T01:12:35.481Z,994.13
2018-12-03T01:13:35.384Z,994.14
2018-12-03T01:14:35.272Z,994.14
2018-12-03T01:15:35.174Z,994.16
2018-12-03T01:16:35.072Z,994.24
2018-12-03T01:17:34.976Z,994.18
2018-12-03T01:18:34.862Z,994.15
2018-12-03T01:19:34.757Z,994.11
2018-12-03T01:20:34.911Z,994.17
2018-12-03T01:21:34.564Z,994.15
2018-12-03T01:22:34.457Z,994.18
2018-12-03T01:23:34.354Z,994.15
2018-12-03T01:24:34.252Z,994.18
2018-12-03T01:25:34.156Z,994.22
2018-12-03T01:26:34.039Z,994.23
2018-12-03T01:27:33.940Z,994.23
2018-12-03T01:28:33.840Z,994.23
2018-12-03T01:29:33.742Z,994.21
2018-12-03T01:30:33.630Z,994.16
2018-12-03T01:31:33.530Z,994.19
2018-12-03T01:32:33.431Z,994.18
2018-12-03T01:33:33.332Z,994.24
2018-12-03T01:34:33.220Z,994.27
2018-12-03T01:35:33.119Z,994.30
2018-12-03T01:36:33.020Z,994.34
2018-12-03T01:37:32.921Z,994.36
2018-12-03T01:38:32.808Z,994.33
2018-12-03T01:39:32.710Z,994.41
2018-12-03T01:40:32.911Z,994.34
2018-12-03T01:41:32.511Z,994.40
2018-12-03T01:42:32.398Z,994.40
2018-12-03T01:43:32.299Z,994.38
2018-12-03T01:44:32.199Z,994.42
2018-12-03T01:45:32.100Z,994.36
2018-12-03T01:46:31.989Z,994.33
2018-12-03T01:47:31.890Z,994.34
2018-12-03T01:48:31.791Z,994.39
2018-12-03T01:49:31.691Z,994.40
2018-12-03T01:50:31.581Z,994.39
2018-12-03T01:51:31.478Z,994.36
2018-12-03T01:52:31.398Z,994.40
2018-12-03T01:53:31.279Z,994.41
2018-12-03T01:54:31.180Z,994.41
2018-12-03T01:55:31.069Z,994.41
2018-12-03T01:56:30.972Z,994.37
2018-12-03T01:57:30.870Z,994.41
2018-12-03T01:58:30.769Z,994.36
2018-12-03T01:59:30.659Z,994.33
2018-12-03T02:00:30.558Z,994.30
2018-12-03T02:01:30.460Z,994.29
2018-12-03T02:02:30.375Z,994.31
2018-12-03T02:03:30.260Z,994.30
2018-12-03T02:04:30.148Z,994.29
2018-12-03T02:05:30.049Z,994.25
2018-12-03T02:06:29.950Z,994.21
2018-12-03T02:07:29.850Z,994.21
2018-12-03T02:08:29.754Z,994.23
2018-12-03T02:09:29.638Z,994.25
2018-12-03T02:10:29.539Z,994.27
2018-12-03T02:11:29.439Z,994.23
2018-12-03T02:12:29.343Z,994.21
2018-12-03T02:13:29.241Z,994.17
2018-12-03T02:14:29.133Z,994.20
2018-12-03T02:15:29.032Z,994.22
2018-12-03T02:16:28.936Z,994.18
2018-12-03T02:17:28.832Z,994.17
2018-12-03T02:18:28.718Z,994.20
2018-12-03T02:19:28.652Z,994.18
2018-12-03T02:20:28.769Z,994.16
2018-12-03T02:21:28.420Z,994.21
2018-12-03T02:22:28.320Z,994.25
2018-12-03T02:23:28.209Z,994.27
2018-12-03T02:24:28.109Z,994.22
2018-12-03T02:25:28.013Z,994.28
2018-12-03T02:26:27.911Z,994.30
2018-12-03T02:27:27.811Z,994.27
2018-12-03T02:28:27.698Z,994.29
2018-12-03T02:29:27.600Z,994.26
2018-12-03T02:30:27.501Z,994.30
2018-12-03T02:31:27.400Z,994.26
2018-12-03T02:32:27.301Z,994.24
2018-12-03T02:33:27.190Z,994.26
2018-12-03T02:34:27.090Z,994.31
2018-12-03T02:35:26.999Z,994.29
2018-12-03T02:36:26.892Z,994.25
2018-12-03T02:37:26.793Z,994.28
2018-12-03T02:38:26.694Z,994.29
2018-12-03T02:39:26.584Z,994.25
2018-12-03T02:40:26.783Z,994.30
2018-12-03T02:41:26.382Z,994.30
2018-12-03T02:42:26.282Z,994.28
2018-12-03T02:43:26.170Z,994.29
2018-12-03T02:44:26.071Z,994.29
2018-12-03T02:45:25.971Z,994.26
2018-12-03T02:46:25.872Z,994.24
2018-12-03T02:47:25.773Z,994.24
2018-12-03T02:48:25.661Z,994.24
2018-12-03T02:49:25.563Z,994.27
2018-12-03T02:50:25.469Z,994.34
2018-12-03T02:51:25.362Z,994.36
2018-12-03T02:52:25.263Z,994.35
2018-12-03T02:53:25.162Z,994.36
2018-12-03T02:54:25.051Z,994.33
2018-12-03T02:55:24.952Z,994.32
2018-12-03T02:56:24.852Z,994.31
2018-12-03T02:57:24.753Z,994.31
2018-12-03T02:58:24.653Z,994.30
2018-12-03T02:59:24.541Z,994.36
2018-12-03T03:00:24.442Z,994.34
2018-12-03T03:01:24.342Z,994.44
2018-12-03T03:02:24.245Z,994.48
2018-12-03T03:03:24.152Z,994.43
2018-12-03T03:04:24.042Z,994.40
2018-12-03T03:05:23.936Z,994.44
2018-12-03T03:06:23.832Z,994.41
2018-12-03T03:07:23.733Z,994.39
2018-12-03T03:08:23.634Z,994.43
2018-12-03T03:09:23.535Z,994.46
2018-12-03T03:10:23.435Z,994.44
2018-12-03T03:11:23.323Z,994.39
2018-12-03T03:12:23.223Z,994.43
2018-12-03T03:13:23.123Z,994.45
2018-12-03T03:14:23.024Z,994.39
2018-12-03T03:15:22.924Z,994.37
2018-12-03T03:16:22.825Z,994.35
2018-12-03T03:17:22.714Z,994.33
2018-12-03T03:18:22.616Z,994.32
2018-12-03T03:19:22.519Z,994.43
2018-12-03T03:20:22.415Z,994.37
2018-12-03T03:21:22.317Z,994.39
2018-12-03T03:22:22.204Z,994.42
2018-12-03T03:23:22.104Z,994.39
2018-12-03T03:24:22.004Z,994.39
2018-12-03T03:25:21.905Z,994.42
2018-12-03T03:26:21.806Z,994.39
2018-12-03T03:27:21.704Z,994.39
2018-12-03T03:28:21.595Z,994.37
2018-12-03T03:29:21.496Z,994.37
2018-12-03T03:30:21.398Z,994.39
2018-12-03T03:31:21.298Z,994.40
2018-12-03T03:32:21.198Z,994.38
2018-12-03T03:33:21.109Z,994.39
2018-12-03T03:34:20.986Z,994.36
2018-12-03T03:35:20.885Z,994.35
2018-12-03T03:36:20.786Z,994.33
2018-12-03T03:37:20.688Z,994.32
2018-12-03T03:38:20.592Z,994.34
2018-12-03T03:39:20.501Z,994.34
2018-12-03T03:40:20.377Z,994.34
2018-12-03T03:41:20.278Z,994.31
2018-12-03T03:42:20.178Z,994.27
2018-12-03T03:43:20.089Z,994.30
2018-12-03T03:44:19.982Z,994.27
2018-12-03T03:45:19.879Z,994.28
2018-12-03T03:46:19.767Z,994.29
2018-12-03T03:47:19.668Z,994.25
2018-12-03T03:48:19.568Z,994.28
2018-12-03T03:49:19.469Z,994.29
2018-12-03T03:50:19.372Z,994.27
2018-12-03T03:51:19.270Z,994.26
2018-12-03T03:52:19.159Z,994.25
2018-12-03T03:53:19.061Z,994.26
2018-12-03T03:54:25.092Z,994.25
2018-12-03T03:55:18.861Z,994.27
2018-12-03T03:56:18.761Z,994.27
2018-12-03T03:57:18.662Z,994.29
2018-12-03T03:58:18.550Z,994.32
2018-12-03T03:59:18.456Z,994.34
2018-12-03T04:00:18.350Z,994.34
2018-12-03T04:01:18.251Z,994.35
2018-12-03T04:02:18.151Z,994.36
2018-12-03T04:03:18.051Z,994.36
2018-12-03T04:04:17.940Z,994.32
2018-12-03T04:05:17.857Z,994.30
2018-12-03T04:06:17.742Z,994.36
2018-12-03T04:07:17.642Z,994.32
2018-12-03T04:08:17.546Z,994.29
2018-12-03T04:09:17.431Z,994.27
2018-12-03T04:10:17.331Z,994.30
2018-12-03T04:11:17.233Z,994.29
2018-12-03T04:12:17.135Z,994.30
2018-12-03T04:13:17.035Z,994.31
2018-12-03T04:14:16.933Z,994.30
2018-12-03T04:15:16.823Z,994.29
2018-12-03T04:16:16.723Z,994.26
2018-12-03T04:17:16.625Z,994.24
2018-12-03T04:18:16.526Z,994.22
2018-12-03T04:19:16.425Z,994.24
2018-12-03T04:20:16.325Z,994.22
2018-12-03T04:21:16.212Z,994.25
2018-12-03T04:22:16.112Z,994.27
2018-12-03T04:23:16.013Z,994.24
2018-12-03T04:24:15.914Z,994.24
2018-12-03T04:25:15.814Z,994.24
2018-12-03T04:26:15.702Z,994.17
2018-12-03T04:27:15.603Z,994.19
2018-12-03T04:28:15.504Z,994.21
2018-12-03T04:29:15.405Z,994.13
2018-12-03T04:30:15.305Z,994.14
2018-12-03T04:31:15.206Z,994.11
2018-12-03T04:32:15.094Z,994.13
2018-12-03T04:33:14.993Z,994.11
2018-12-03T04:34:14.894Z,994.13
2018-12-03T04:35:14.795Z,994.11
2018-12-03T04:36:14.696Z,994.12
2018-12-03T04:37:14.596Z,994.09
2018-12-03T04:38:14.485Z,994.10
2018-12-03T04:39:14.396Z,994.13
2018-12-03T04:40:14.286Z,994.08
2018-12-03T04:41:14.185Z,994.06
2018-12-03T04:42:14.088Z,993.99
2018-12-03T04:43:13.988Z,994.02
2018-12-03T04:44:13.879Z,994.05
2018-12-03T04:45:14.025Z,994.04
2018-12-03T04:46:13.676Z,994.04
2018-12-03T04:47:13.577Z,994.04
2018-12-03T04:48:13.478Z,994.06
2018-12-03T04:49:13.387Z,994.06
2018-12-03T04:50:13.269Z,994.06
2018-12-03T04:51:13.167Z,994.08
2018-12-03T04:52:13.072Z,994.05
2018-12-03T04:53:12.969Z,994.07
2018-12-03T04:54:12.869Z,994.09
2018-12-03T04:55:12.769Z,994.13
2018-12-03T04:56:12.658Z,994.08
2018-12-03T04:57:12.557Z,994.04
2018-12-03T04:58:12.458Z,994.08
2018-12-03T04:59:12.359Z,994.10
2018-12-03T05:00:12.259Z,994.05
2018-12-03T05:01:12.148Z,994.07
2018-12-03T05:02:12.049Z,994.05
2018-12-03T05:03:11.949Z,994.04
2018-12-03T05:04:11.854Z,994.07
2018-12-03T05:05:12.053Z,994.05
2018-12-03T05:06:11.638Z,994.07
2018-12-03T05:07:11.538Z,994.07
2018-12-03T05:08:11.440Z,994.03
2018-12-03T05:09:11.340Z,994.04
2018-12-03T05:10:11.254Z,994.04
2018-12-03T05:11:11.140Z,994.07
2018-12-03T05:12:11.029Z,994.05
2018-12-03T05:13:10.930Z,994.05
2018-12-03T05:14:10.834Z,994.04
2018-12-03T05:15:10.736Z,994.03
2018-12-03T05:16:10.632Z,993.98
2018-12-03T05:17:10.520Z,994.00
2018-12-03T05:18:10.419Z,994.01
2018-12-03T05:19:10.321Z,993.96
2018-12-03T05:20:10.221Z,993.95
2018-12-03T05:21:10.126Z,993.93
2018-12-03T05:22:10.011Z,993.98
2018-12-03T05:23:09.910Z,993.92
2018-12-03T05:24:09.811Z,993.97
2018-12-03T05:25:09.714Z,993.97
2018-12-03T05:26:09.613Z,993.94
2018-12-03T05:27:09.513Z,993.96
2018-12-03T05:28:09.412Z,993.92
2018-12-03T05:29:09.345Z,993.94
2018-12-03T05:30:09.208Z,993.89
2018-12-03T05:31:09.102Z,993.86
2018-12-03T05:32:09.005Z,993.85
2018-12-03T05:33:08.903Z,993.90
2018-12-03T05:34:08.792Z,993.87
2018-12-03T05:35:08.692Z,993.86
2018-12-03T05:36:08.592Z,993.86
2018-12-03T05:37:08.494Z,993.86
2018-12-03T05:38:08.394Z,993.83
2018-12-03T05:39:08.294Z,993.83
2018-12-03T05:40:08.183Z,993.81
2018-12-03T05:41:08.083Z,993.81
2018-12-03T05:42:07.985Z,993.78
2018-12-03T05:43:07.884Z,993.79
2018-12-03T05:44:07.784Z,993.83
2018-12-03T05:45:07.685Z,993.79
2018-12-03T05:46:07.574Z,993.81
2018-12-03T05:47:07.476Z,993.85
2018-12-03T05:48:07.375Z,993.87
2018-12-03T05:49:07.275Z,993.85
2018-12-03T05:50:07.177Z,993.89
2018-12-03T05:51:07.076Z,993.88
2018-12-03T05:52:06.964Z,993.82
2018-12-03T05:53:06.865Z,993.87
2018-12-03T05:54:06.765Z,993.87
2018-12-03T05:55:06.666Z,993.90
2018-12-03T05:56:06.569Z,993.87
2018-12-03T05:57:06.467Z,993.91
2018-12-03T05:58:06.355Z,993.90
2018-12-03T05:59:06.259Z,993.95
2018-12-03T06:00:06.156Z,993.93
2018-12-03T06:01:06.057Z,993.92
2018-12-03T06:02:05.958Z,993.94
2018-12-03T06:03:05.893Z,993.95
2018-12-03T06:04:05.746Z,993.98
2018-12-03T06:05:05.646Z,993.96
2018-12-03T06:06:05.547Z,993.92
2018-12-03T06:07:05.447Z,993.92
2018-12-03T06:08:05.349Z,993.98
2018-12-03T06:09:05.249Z,993.92
2018-12-03T06:10:05.137Z,993.94
2018-12-03T06:11:05.039Z,993.90
2018-12-03T06:12:04.939Z,993.89
2018-12-03T06:13:04.839Z,993.84
2018-12-03T06:14:04.728Z,993.87
2018-12-03T06:15:04.627Z,993.81
2018-12-03T06:16:04.527Z,993.83
2018-12-03T06:17:04.428Z,993.89
2018-12-03T06:18:04.330Z,993.86
2018-12-03T06:19:04.230Z,993.87
2018-12-03T06:20:04.119Z,993.89
2018-12-03T06:21:04.019Z,993.94
2018-12-03T06:22:03.922Z,993.90
2018-12-03T06:23:03.821Z,993.91
2018-12-03T06:24:03.714Z,993.87
2018-12-03T06:25:03.608Z,993.88
2018-12-03T06:26:03.508Z,993.80
2018-12-03T06:27:03.402Z,993.85
2018-12-03T06:28:03.313Z,993.82
2018-12-03T06:29:03.198Z,993.83
2018-12-03T06:30:03.098Z,993.82
2018-12-03T06:31:02.999Z,993.84
2018-12-03T06:32:02.900Z,993.84
2018-12-03T06:33:02.800Z,993.83
2018-12-03T06:34:02.692Z,993.80
2018-12-03T06:35:02.589Z,993.82
2018-12-03T06:36:02.489Z,993.84
2018-12-03T06:37:02.390Z,993.83
2018-12-03T06:38:02.278Z,993.79
2018-12-03T06:39:02.179Z,993.82
2018-12-03T06:40:02.083Z,993.81
2018-12-03T06:41:01.979Z,993.81
2018-12-03T06:42:01.881Z,993.76
2018-12-03T06:43:01.770Z,993.77
2018-12-03T06:44:01.669Z,993.77
2018-12-03T06:45:01.569Z,993.77
2018-12-03T06:46:01.470Z,993.75
2018-12-03T06:47:01.371Z,993.72
2018-12-03T06:48:01.260Z,993.79
2018-12-03T06:49:01.160Z,993.75
2018-12-03T06:50:01.060Z,993.74
2018-12-03T06:51:00.961Z,993.76
2018-12-03T06:52:00.861Z,993.71
2018-12-03T06:53:00.752Z,993.77
2018-12-03T06:54:00.649Z,993.82
2018-12-03T06:55:00.550Z,993.76
2018-12-03T06:56:00.450Z,993.79
2018-12-03T06:57:00.351Z,993.79
2018-12-03T06:58:00.240Z,993.76
2018-12-03T06:59:00.141Z,993.75
2018-12-03T07:00:00.041Z,993.74
2018-12-03T07:00:59.942Z,993.74
2018-12-03T07:01:59.842Z,993.78
2018-12-03T07:02:59.731Z,993.73
2018-12-03T07:03:59.631Z,993.79
2018-12-03T07:04:59.531Z,993.77
2018-12-03T07:05:59.440Z,993.75
2018-12-03T07:06:59.331Z,993.83
2018-12-03T07:07:59.232Z,993.81
2018-12-03T07:08:59.122Z,993.82
2018-12-03T07:09:59.021Z,993.81
2018-12-03T07:10:58.924Z,993.80
2018-12-03T07:11:58.823Z,993.80
2018-12-03T07:12:58.723Z,993.81
2018-12-03T07:13:58.611Z,993.82
2018-12-03T07:14:58.511Z,993.84
2018-12-03T07:15:58.413Z,993.82
2018-12-03T07:16:58.312Z,993.82
2018-12-03T07:17:58.215Z,993.83
2018-12-03T07:18:58.102Z,993.86
2018-12-03T07:19:58.002Z,993.90
2018-12-03T07:20:57.906Z,993.87
2018-12-03T07:21:57.803Z,993.93
2018-12-03T07:22:57.708Z,993.98
2018-12-03T07:23:57.595Z,993.98
2018-12-03T07:24:57.491Z,993.98
2018-12-03T07:25:57.393Z,993.92
2018-12-03T07:26:57.293Z,993.96
2018-12-03T07:27:57.194Z,993.97
2018-12-03T07:28:57.095Z,993.97
2018-12-03T07:29:56.987Z,993.98
2018-12-03T07:30:56.888Z,993.95
2018-12-03T07:31:56.786Z,993.94
2018-12-03T07:32:56.687Z,993.98
2018-12-03T07:33:56.574Z,993.97
2018-12-03T07:34:56.472Z,993.97
2018-12-03T07:35:56.376Z,994.01
2018-12-03T07:36:56.274Z,994.03
2018-12-03T07:37:56.178Z,994.05
2018-12-03T07:38:56.062Z,994.07
2018-12-03T07:39:55.964Z,994.03
2018-12-03T07:40:55.864Z,994.08
2018-12-03T07:41:55.766Z,994.10
2018-12-03T07:42:55.664Z,994.03
2018-12-03T07:43:55.555Z,994.07
2018-12-03T07:44:55.453Z,994.09
2018-12-03T07:45:55.355Z,994.11
2018-12-03T07:46:55.255Z,994.04
2018-12-03T07:47:55.155Z,994.01
2018-12-03T07:48:55.043Z,994.05
2018-12-03T07:49:54.944Z,994.05
2018-12-03T07:50:54.845Z,994.00
2018-12-03T07:51:54.746Z,994.02
2018-12-03T07:52:54.649Z,994.00
2018-12-03T07:53:54.564Z,994.00
2018-12-03T07:54:54.448Z,994.04
2018-12-03T07:55:54.355Z,994.07
2018-12-03T07:56:54.239Z,994.01
2018-12-03T07:57:54.124Z,993.95
2018-12-03T07:58:54.025Z,994.02
2018-12-03T07:59:53.925Z,994.04
2018-12-03T08:00:53.826Z,994.02
2018-12-03T08:01:53.714Z,993.97
2018-12-03T08:02:53.613Z,993.99
2018-12-03T08:03:53.514Z,993.97
2018-12-03T08:04:53.416Z,993.95
2018-12-03T08:05:53.316Z,993.93
2018-12-03T08:06:53.204Z,993.94
2018-12-03T08:07:53.104Z,993.91
2018-12-03T08:08:53.006Z,993.94
2018-12-03T08:09:52.906Z,993.97
2018-12-03T08:10:52.794Z,993.99
2018-12-03T08:11:52.697Z,993.97
2018-12-03T08:12:52.594Z,993.99
2018-12-03T08:13:52.495Z,994.02
2018-12-03T08:14:52.395Z,993.99
2018-12-03T08:15:52.284Z,993.98
2018-12-03T08:16:52.185Z,994.01
2018-12-03T08:17:52.085Z,994.01
2018-12-03T08:18:51.986Z,993.98
2018-12-03T08:19:56.425Z,993.95
2018-12-03T08:20:51.773Z,993.92
2018-12-03T08:21:51.674Z,993.92
2018-12-03T08:22:51.576Z,993.91
2018-12-03T08:23:51.475Z,993.92
2018-12-03T08:24:51.365Z,993.92
2018-12-03T08:25:51.265Z,993.91
2018-12-03T08:26:51.166Z,993.86
2018-12-03T08:27:51.067Z,993.91
2018-12-03T08:28:50.955Z,993.92
2018-12-03T08:29:50.855Z,993.89
2018-12-03T08:30:50.768Z,993.85
2018-12-03T08:31:50.671Z,993.86
2018-12-03T08:32:50.571Z,993.90
2018-12-03T08:33:50.443Z,993.89
2018-12-03T08:34:50.345Z,993.87
2018-12-03T08:35:50.246Z,993.90
2018-12-03T08:36:50.146Z,993.94
2018-12-03T08:37:50.036Z,993.93
2018-12-03T08:38:49.934Z,993.93
2018-12-03T08:39:49.834Z,994.00
2018-12-03T08:40:49.736Z,994.00
2018-12-03T08:41:49.637Z,993.97
2018-12-03T08:42:49.524Z,993.94
2018-12-03T08:43:49.424Z,993.98
2018-12-03T08:44:49.325Z,993.96
2018-12-03T08:45:49.227Z,994.00
2018-12-03T08:46:49.127Z,993.99
2018-12-03T08:47:49.015Z,994.00
2018-12-03T08:48:48.914Z,994.05
2018-12-03T08:49:48.818Z,994.04
2018-12-03T08:50:48.715Z,993.99
2018-12-03T08:51:48.617Z,994.04
2018-12-03T08:52:48.516Z,994.01
2018-12-03T08:53:48.416Z,994.03
2018-12-03T08:54:48.306Z,994.04
2018-12-03T08:55:48.206Z,994.01
2018-12-03T08:56:48.106Z,994.01
2018-12-03T08:57:48.008Z,994.02
2018-12-03T08:58:47.895Z,993.98
2018-12-03T08:59:47.797Z,993.97
2018-12-03T09:00:47.697Z,993.97
2018-12-03T09:01:47.600Z,993.99
2018-12-03T09:02:47.497Z,993.99
2018-12-03T09:03:47.399Z,994.00
2018-12-03T09:04:47.286Z,993.92
2018-12-03T09:05:47.187Z,993.99
2018-12-03T09:06:47.088Z,993.98
2018-12-03T09:07:46.988Z,993.97
2018-12-03T09:08:46.889Z,993.94
2018-12-03T09:09:46.779Z,993.92
2018-12-03T09:10:46.677Z,993.91
2018-12-03T09:11:46.577Z,993.95
2018-12-03T09:12:46.478Z,993.90
2018-12-03T09:13:46.380Z,993.91
2018-12-03T09:14:46.279Z,993.92
2018-12-03T09:15:46.180Z,993.93
2018-12-03T09:16:46.074Z,993.94
2018-12-03T09:17:45.969Z,993.94
2018-12-03T09:18:45.886Z,993.92
2018-12-03T09:19:45.770Z,993.95
2018-12-03T09:20:45.671Z,993.94
2018-12-03T09:21:45.572Z,994.05
2018-12-03T09:22:45.472Z,994.10
2018-12-03T09:23:45.360Z,994.02
2018-12-03T09:24:45.260Z,994.02
2018-12-03T09:25:45.161Z,994.01
2018-12-03T09:26:45.060Z,994.07
2018-12-03T09:27:44.961Z,994.06
2018-12-03T09:28:44.862Z,994.02
2018-12-03T09:29:44.762Z,994.00
2018-12-03T09:30:44.651Z,993.99
2018-12-03T09:31:44.554Z,993.99
2018-12-03T09:32:44.452Z,994.00
2018-12-03T09:33:44.353Z,993.96
2018-12-03T09:34:44.254Z,994.02
2018-12-03T09:35:44.154Z,994.00
2018-12-03T09:36:44.043Z,993.95
2018-12-03T09:37:43.942Z,993.98
2018-12-03T09:38:43.842Z,994.00
2018-12-03T09:39:43.745Z,993.94
2018-12-03T09:40:43.644Z,994.00
2018-12-03T09:41:43.544Z,994.02
2018-12-03T09:42:43.434Z,994.01
2018-12-03T09:43:43.333Z,994.01
2018-12-03T09:44:43.234Z,994.01
2018-12-03T09:45:43.135Z,994.02
2018-12-03T09:46:43.036Z,994.09
2018-12-03T09:47:42.935Z,994.09
2018-12-03T09:48:42.835Z,994.11
2018-12-03T09:49:42.724Z,994.11
2018-12-03T09:50:42.625Z,994.07
2018-12-03T09:51:42.525Z,994.11
2018-12-03T09:52:42.426Z,994.09
2018-12-03T09:53:42.327Z,994.09
2018-12-03T09:54:42.226Z,994.10
2018-12-03T09:55:42.117Z,994.08
2018-12-03T09:56:42.016Z,994.05
2018-12-03T09:57:41.918Z,993.99
2018-12-03T09:58:41.817Z,993.98
2018-12-03T09:59:41.718Z,994.02
2018-12-03T10:00:41.623Z,994.02
2018-12-03T10:01:41.507Z,994.00
2018-12-03T10:02:41.406Z,994.03
2018-12-03T10:03:41.308Z,994.01
2018-12-03T10:04:41.208Z,994.00
2018-12-03T10:05:41.120Z,994.03
2018-12-03T10:06:41.022Z,993.98
2018-12-03T10:07:40.912Z,993.98
2018-12-03T10:08:40.810Z,993.96
2018-12-03T10:09:40.698Z,993.99
2018-12-03T10:10:40.599Z,993.99
2018-12-03T10:11:40.499Z,994.01
2018-12-03T10:12:40.400Z,993.96
2018-12-03T10:13:40.301Z,993.95
2018-12-03T10:14:40.202Z,993.93
2018-12-03T10:15:40.089Z,993.92
2018-12-03T10:16:40.648Z,993.87
2018-12-03T10:17:39.889Z,993.90
2018-12-03T10:18:39.793Z,993.88
2018-12-03T10:19:39.691Z,993.93
2018-12-03T10:20:42.132Z,993.91
2018-12-03T10:21:39.481Z,993.92
2018-12-03T10:22:39.383Z,993.94
2018-12-03T10:23:39.282Z,993.88
2018-12-03T10:24:39.181Z,993.87
2018-12-03T10:25:39.085Z,993.88
2018-12-03T10:26:38.982Z,993.90
2018-12-03T10:27:38.884Z,993.92
2018-12-03T10:28:38.773Z,993.87
2018-12-03T10:29:38.672Z,993.80
2018-12-03T10:30:38.573Z,993.80
2018-12-03T10:31:38.473Z,993.82
2018-12-03T10:32:38.373Z,993.83
2018-12-03T10:33:38.273Z,993.77
2018-12-03T10:34:38.174Z,993.77
2018-12-03T10:35:38.076Z,993.82
2018-12-03T10:36:37.976Z,993.83
2018-12-03T10:37:37.864Z,993.79
2018-12-03T10:38:37.765Z,993.78
2018-12-03T10:39:37.665Z,993.77
2018-12-03T10:40:37.566Z,993.75
2018-12-03T10:41:37.467Z,993.73
2018-12-03T10:42:37.356Z,993.74
2018-12-03T10:43:37.254Z,993.83
2018-12-03T10:44:37.156Z,993.81
2018-12-03T10:45:37.069Z,993.80
2018-12-03T10:46:36.969Z,993.81
2018-12-03T10:47:36.858Z,993.80
2018-12-03T10:48:36.758Z,993.81
2018-12-03T10:49:36.658Z,993.82
2018-12-03T10:50:36.546Z,993.82
2018-12-03T10:51:36.449Z,993.80
2018-12-03T10:52:36.348Z,993.78
2018-12-03T10:53:36.249Z,993.77
2018-12-03T10:54:36.149Z,993.77
2018-12-03T10:55:36.054Z,993.77
2018-12-03T10:56:35.950Z,993.79
2018-12-03T10:57:35.853Z,993.77
2018-12-03T10:58:35.741Z,993.75
2018-12-03T10:59:35.638Z,993.77
2018-12-03T11:00:35.539Z,993.76
2018-12-03T11:01:35.438Z,993.78
2018-12-03T11:02:35.340Z,993.82
2018-12-03T11:03:35.240Z,993.79
2018-12-03T11:04:35.141Z,993.84
2018-12-03T11:05:35.042Z,993.83
2018-12-03T11:06:34.931Z,993.80
2018-12-03T11:07:34.831Z,993.84
2018-12-03T11:08:34.731Z,993.86
2018-12-03T11:09:34.633Z,993.85
2018-12-03T11:10:34.534Z,993.84
2018-12-03T11:11:34.433Z,993.90
2018-12-03T11:12:34.333Z,993.90
2018-12-03T11:13:34.234Z,993.89
2018-12-03T11:14:34.134Z,993.83
2018-12-03T11:15:34.035Z,993.81
2018-12-03T11:16:33.924Z,993.76
2018-12-03T11:17:33.823Z,993.83
2018-12-03T11:18:33.725Z,993.85
2018-12-03T11:19:33.624Z,993.83
2018-12-03T11:20:33.524Z,993.80
2018-12-03T11:21:33.425Z,993.80
2018-12-03T11:22:33.325Z,993.75
2018-12-03T11:23:34.588Z,993.80
2018-12-03T11:24:33.127Z,993.73
2018-12-03T11:25:33.027Z,993.75
2018-12-03T11:26:32.917Z,993.78
2018-12-03T11:27:32.818Z,993.76
2018-12-03T11:28:32.721Z,993.77
2018-12-03T11:29:32.618Z,993.75
2018-12-03T11:30:32.523Z,993.69
2018-12-03T11:31:32.420Z,993.74
2018-12-03T11:32:32.319Z,993.73
2018-12-03T11:33:32.224Z,993.76
2018-12-03T11:34:32.131Z,993.73
2018-12-03T11:35:32.010Z,993.72
2018-12-03T11:36:31.912Z,993.73
2018-12-03T11:37:31.808Z,993.71
2018-12-03T11:38:31.710Z,993.73
2018-12-03T11:39:31.611Z,993.70
2018-12-03T11:40:31.515Z,993.64
2018-12-03T11:41:31.411Z,993.65
2018-12-03T11:42:31.312Z,993.65
2018-12-03T11:43:31.213Z,993.63
2018-12-03T11:44:31.102Z,993.61
2018-12-03T11:45:31.002Z,993.64
2018-12-03T11:46:30.904Z,993.63
2018-12-03T11:47:30.803Z,993.59
2018-12-03T11:48:30.704Z,993.59
2018-12-03T11:49:30.604Z,993.58
2018-12-03T11:50:30.505Z,993.54
2018-12-03T11:51:30.408Z,993.57
2018-12-03T11:52:30.293Z,993.58
2018-12-03T11:53:30.193Z,993.53
2018-12-03T11:54:30.094Z,993.50
2018-12-03T11:55:29.994Z,993.55
2018-12-03T11:56:29.894Z,993.58
2018-12-03T11:57:29.795Z,993.55
2018-12-03T11:58:29.699Z,993.54
2018-12-03T11:59:29.597Z,993.63
2018-12-03T12:00:29.491Z,993.58
2018-12-03T12:01:29.387Z,993.55
2018-12-03T12:02:29.286Z,993.58
2018-12-03T12:03:29.188Z,993.60
2018-12-03T12:04:30.188Z,993.65
2018-12-03T12:05:28.988Z,993.64
2018-12-03T12:06:28.893Z,993.61
2018-12-03T12:07:28.777Z,993.66
2018-12-03T12:08:28.677Z,993.69
2018-12-03T12:09:28.580Z,993.66
2018-12-03T12:10:28.478Z,993.66
2018-12-03T12:11:28.378Z,993.60
2018-12-03T12:12:28.279Z,993.66
2018-12-03T12:13:28.180Z,993.65
2018-12-03T12:14:28.080Z,993.73
2018-12-03T12:15:27.969Z,993.68
2018-12-03T12:16:27.870Z,993.70
2018-12-03T12:17:27.770Z,993.73
2018-12-03T12:18:27.671Z,993.70
2018-12-03T12:19:27.571Z,993.71
2018-12-03T12:20:27.473Z,993.72
2018-12-03T12:21:27.374Z,993.66
2018-12-03T12:22:27.280Z,993.68
2018-12-03T12:23:27.162Z,993.69
2018-12-03T12:24:27.063Z,993.70
2018-12-03T12:25:26.961Z,993.64
2018-12-03T12:26:26.866Z,993.80
2018-12-03T12:27:26.763Z,993.76